sensor_id;sensor_type;location;lat;lon;timestamp;temperature;humidity
59301;DHT22;45073;52.740;6.784;2022-12-18T00:00:47;-2.60;99.90
59301;DHT22;45073;52.740;6.784;2022-12-18T00:03:13;-2.60;99.90
59301;DHT22;45073;52.740;6.784;2022-12-18T00:05:49;-2.70;99.90
59301;DHT22;45073;52.740;6.784;2022-12-18T00:08:16;-2.70;99.90
59301;DHT22;45073;52.740;6.784;2022-12-18T00:10:42;-2.70;99.90
59301;DHT22;45073;52.740;6.784;2022-12-18T00:13:08;-2.70;99.90
59301;DHT22;45073;52.740;6.784;2022-12-18T00:15:38;-2.70;99.90
59301;DHT22;45073;52.740;6.784;2022-12-18T00:18:04;-2.70;99.90
59301;DHT22;45073;52.740;6.784;2022-12-18T00:20:30;-2.70;99.90
59301;DHT22;45073;52.740;6.784;2022-12-18T00:22:56;-2.70;99.90
59301;DHT22;45073;52.740;6.784;2022-12-18T00:25:21;-2.70;99.90
59301;DHT22;45073;52.740;6.784;2022-12-18T00:27:47;-2.70;99.90
59301;DHT22;45073;52.740;6.784;2022-12-18T00:30:13;-2.80;99.90
59301;DHT22;45073;52.740;6.784;2022-12-18T00:32:39;-2.80;99.90
59301;DHT22;45073;52.740;6.784;2022-12-18T00:35:06;-2.90;99.90
59301;DHT22;45073;52.740;6.784;2022-12-18T00:37:35;-2.90;99.90
59301;DHT22;45073;52.740;6.784;2022-12-18T00:40:02;-2.90;99.90
59301;DHT22;45073;52.740;6.784;2022-12-18T00:42:27;-2.90;99.90
59301;DHT22;45073;52.740;6.784;2022-12-18T00:45:12;-3.00;99.90
59301;DHT22;45073;52.740;6.784;2022-12-18T00:47:38;-3.00;99.90
59301;DHT22;45073;52.740;6.784;2022-12-18T00:50:04;-3.00;99.90
59301;DHT22;45073;52.740;6.784;2022-12-18T00:52:29;-3.00;99.90
59301;DHT22;45073;52.740;6.784;2022-12-18T00:54:55;-3.00;99.90
59301;DHT22;45073;52.740;6.784;2022-12-18T00:57:20;-3.10;99.90
59301;DHT22;45073;52.740;6.784;2022-12-18T00:59:46;-3.10;99.90
59301;DHT22;45073;52.740;6.784;2022-12-18T01:02:11;-3.10;99.90
59301;DHT22;45073;52.740;6.784;2022-12-18T01:04:37;-3.10;99.90
59301;DHT22;45073;52.740;6.784;2022-12-18T01:07:03;-3.10;99.90
59301;DHT22;45073;52.740;6.784;2022-12-18T01:09:28;-3.20;99.90
59301;DHT22;45073;52.740;6.784;2022-12-18T01:11:54;-3.20;99.90
59301;DHT22;45073;52.740;6.784;2022-12-18T01:14:19;-3.20;99.90
59301;DHT22;45073;52.740;6.784;2022-12-18T01:16:45;-3.20;99.90
59301;DHT22;45073;52.740;6.784;2022-12-18T01:19:10;-3.30;99.90
59301;DHT22;45073;52.740;6.784;2022-12-18T01:21:36;-3.30;99.90
59301;DHT22;45073;52.740;6.784;2022-12-18T01:24:02;-3.30;99.90
59301;DHT22;45073;52.740;6.784;2022-12-18T01:26:27;-3.30;99.90
59301;DHT22;45073;52.740;6.784;2022-12-18T01:28:55;-3.30;99.90
59301;DHT22;45073;52.740;6.784;2022-12-18T01:31:29;-3.40;99.90
59301;DHT22;45073;52.740;6.784;2022-12-18T01:33:55;-3.40;99.90
59301;DHT22;45073;52.740;6.784;2022-12-18T01:36:27;-3.40;99.90
59301;DHT22;45073;52.740;6.784;2022-12-18T01:38:53;-3.40;99.90
59301;DHT22;45073;52.740;6.784;2022-12-18T01:41:22;-3.40;99.90
59301;DHT22;45073;52.740;6.784;2022-12-18T01:43:52;-3.40;99.90
59301;DHT22;45073;52.740;6.784;2022-12-18T01:46:21;-3.50;99.90
59301;DHT22;45073;52.740;6.784;2022-12-18T01:48:52;-3.40;99.90
59301;DHT22;45073;52.740;6.784;2022-12-18T01:51:19;-3.50;99.90
59301;DHT22;45073;52.740;6.784;2022-12-18T01:53:46;-3.50;99.90
59301;DHT22;45073;52.740;6.784;2022-12-18T01:56:14;-3.50;99.90
59301;DHT22;45073;52.740;6.784;2022-12-18T01:58:46;-3.60;99.90
59301;DHT22;45073;52.740;6.784;2022-12-18T02:01:13;-3.60;99.90
59301;DHT22;45073;52.740;6.784;2022-12-18T02:03:43;-3.60;99.90
59301;DHT22;45073;52.740;6.784;2022-12-18T02:06:24;-3.60;99.90
59301;DHT22;45073;52.740;6.784;2022-12-18T02:12:20;-3.70;99.90
59301;DHT22;45073;52.740;6.784;2022-12-18T02:14:39;-3.70;99.90
59301;DHT22;45073;52.740;6.784;2022-12-18T02:28:30;-3.90;99.90
59301;DHT22;45073;52.740;6.784;2022-12-18T02:30:58;-4.00;99.90
59301;DHT22;45073;52.740;6.784;2022-12-18T02:33:27;-4.00;99.90
59301;DHT22;45073;52.740;6.784;2022-12-18T02:35:55;-4.00;99.90
59301;DHT22;45073;52.740;6.784;2022-12-18T02:38:23;-4.00;99.90
59301;DHT22;45073;52.740;6.784;2022-12-18T02:40:51;-4.10;99.90
59301;DHT22;45073;52.740;6.784;2022-12-18T02:43:18;-4.10;99.90
59301;DHT22;45073;52.740;6.784;2022-12-18T02:45:49;-4.10;99.90
59301;DHT22;45073;52.740;6.784;2022-12-18T02:48:17;-4.10;99.90
59301;DHT22;45073;52.740;6.784;2022-12-18T02:51:15;-4.20;99.90
59301;DHT22;45073;52.740;6.784;2022-12-18T02:53:56;-4.20;99.90
59301;DHT22;45073;52.740;6.784;2022-12-18T02:56:35;-4.20;99.90
59301;DHT22;45073;52.740;6.784;2022-12-18T02:59:19;-4.20;99.90
59301;DHT22;45073;52.740;6.784;2022-12-18T03:02:16;-4.30;99.90
59301;DHT22;45073;52.740;6.784;2022-12-18T03:04:49;-4.30;99.90
59301;DHT22;45073;52.740;6.784;2022-12-18T03:07:27;-4.30;99.90
59301;DHT22;45073;52.740;6.784;2022-12-18T03:09:58;-4.30;99.90
59301;DHT22;45073;52.740;6.784;2022-12-18T03:12:31;-4.30;99.90
59301;DHT22;45073;52.740;6.784;2022-12-18T03:15:21;-4.40;99.90
59301;DHT22;45073;52.740;6.784;2022-12-18T03:17:52;-4.40;99.90
59301;DHT22;45073;52.740;6.784;2022-12-18T03:20:22;-4.40;99.90
59301;DHT22;45073;52.740;6.784;2022-12-18T03:22:53;-4.40;99.90
59301;DHT22;45073;52.740;6.784;2022-12-18T03:25:19;-4.40;99.90
59301;DHT22;45073;52.740;6.784;2022-12-18T03:27:51;-4.50;99.90
59301;DHT22;45073;52.740;6.784;2022-12-18T03:30:18;-4.50;99.90
59301;DHT22;45073;52.740;6.784;2022-12-18T03:32:48;-4.50;99.90
59301;DHT22;45073;52.740;6.784;2022-12-18T03:35:20;-4.50;99.90
59301;DHT22;45073;52.740;6.784;2022-12-18T03:37:46;-4.50;99.90
59301;DHT22;45073;52.740;6.784;2022-12-18T03:40:12;-4.50;99.90
59301;DHT22;45073;52.740;6.784;2022-12-18T03:42:51;-4.60;99.90
59301;DHT22;45073;52.740;6.784;2022-12-18T03:45:32;-4.60;99.90
59301;DHT22;45073;52.740;6.784;2022-12-18T03:51:48;-4.60;99.90
59301;DHT22;45073;52.740;6.784;2022-12-18T03:53:58;-4.60;99.90
59301;DHT22;45073;52.740;6.784;2022-12-18T03:56:28;-4.60;99.90
59301;DHT22;45073;52.740;6.784;2022-12-18T03:58:55;-4.60;99.90
59301;DHT22;45073;52.740;6.784;2022-12-18T04:01:27;-4.60;99.90
59301;DHT22;45073;52.740;6.784;2022-12-18T04:03:55;-4.60;99.90
59301;DHT22;45073;52.740;6.784;2022-12-18T04:06:21;-4.60;99.90
59301;DHT22;45073;52.740;6.784;2022-12-18T04:08:48;-4.60;99.90
59301;DHT22;45073;52.740;6.784;2022-12-18T04:11:13;-4.70;99.90
59301;DHT22;45073;52.740;6.784;2022-12-18T04:13:42;-4.70;99.90
59301;DHT22;45073;52.740;6.784;2022-12-18T04:16:08;-4.70;99.90
59301;DHT22;45073;52.740;6.784;2022-12-18T04:18:35;-4.70;99.90
59301;DHT22;45073;52.740;6.784;2022-12-18T04:21:01;-4.70;99.90
59301;DHT22;45073;52.740;6.784;2022-12-18T04:23:27;-4.80;99.90
59301;DHT22;45073;52.740;6.784;2022-12-18T04:25:53;-4.80;99.90
59301;DHT22;45073;52.740;6.784;2022-12-18T04:28:20;-4.80;99.90
59301;DHT22;45073;52.740;6.784;2022-12-18T04:30:49;-4.90;99.90
59301;DHT22;45073;52.740;6.784;2022-12-18T04:33:14;-4.90;99.90
59301;DHT22;45073;52.740;6.784;2022-12-18T04:35:40;-4.90;99.90
59301;DHT22;45073;52.740;6.784;2022-12-18T04:38:07;-4.90;99.90
59301;DHT22;45073;52.740;6.784;2022-12-18T04:40:35;-4.90;99.90
59301;DHT22;45073;52.740;6.784;2022-12-18T04:43:01;-4.90;99.90
59301;DHT22;45073;52.740;6.784;2022-12-18T04:45:30;-4.90;99.90
59301;DHT22;45073;52.740;6.784;2022-12-18T04:47:57;-4.90;99.90
59301;DHT22;45073;52.740;6.784;2022-12-18T04:50:23;-4.90;99.90
59301;DHT22;45073;52.740;6.784;2022-12-18T04:52:48;-4.90;99.90
59301;DHT22;45073;52.740;6.784;2022-12-18T04:55:14;-4.90;99.90
59301;DHT22;45073;52.740;6.784;2022-12-18T04:57:40;-5.00;99.90
59301;DHT22;45073;52.740;6.784;2022-12-18T05:00:06;-5.00;99.90
59301;DHT22;45073;52.740;6.784;2022-12-18T05:02:32;-5.00;99.90
59301;DHT22;45073;52.740;6.784;2022-12-18T05:04:57;-5.00;99.90
59301;DHT22;45073;52.740;6.784;2022-12-18T05:07:23;-5.00;99.90
59301;DHT22;45073;52.740;6.784;2022-12-18T05:09:48;-5.00;99.90
59301;DHT22;45073;52.740;6.784;2022-12-18T05:12:14;-5.00;99.90
59301;DHT22;45073;52.740;6.784;2022-12-18T05:14:39;-5.00;99.90
59301;DHT22;45073;52.740;6.784;2022-12-18T05:17:05;-5.00;99.90
59301;DHT22;45073;52.740;6.784;2022-12-18T05:19:31;-5.10;99.90
59301;DHT22;45073;52.740;6.784;2022-12-18T05:21:56;-5.10;99.90
59301;DHT22;45073;52.740;6.784;2022-12-18T05:24:22;-5.10;99.90
59301;DHT22;45073;52.740;6.784;2022-12-18T05:26:48;-5.10;99.90
59301;DHT22;45073;52.740;6.784;2022-12-18T05:29:14;-5.20;99.90
59301;DHT22;45073;52.740;6.784;2022-12-18T05:31:39;-5.20;99.90
59301;DHT22;45073;52.740;6.784;2022-12-18T05:34:05;-5.20;99.90
59301;DHT22;45073;52.740;6.784;2022-12-18T05:36:31;-5.30;99.90
59301;DHT22;45073;52.740;6.784;2022-12-18T05:38:57;-5.30;99.90
59301;DHT22;45073;52.740;6.784;2022-12-18T05:41:22;-5.30;99.90
59301;DHT22;45073;52.740;6.784;2022-12-18T05:43:48;-5.30;99.90
59301;DHT22;45073;52.740;6.784;2022-12-18T05:46:17;-5.30;99.90
59301;DHT22;45073;52.740;6.784;2022-12-18T05:48:45;-5.30;99.90
59301;DHT22;45073;52.740;6.784;2022-12-18T05:51:14;-5.30;99.90
59301;DHT22;45073;52.740;6.784;2022-12-18T05:53:40;-5.40;99.90
59301;DHT22;45073;52.740;6.784;2022-12-18T05:56:09;-5.40;99.90
59301;DHT22;45073;52.740;6.784;2022-12-18T05:58:36;-5.30;99.90
59301;DHT22;45073;52.740;6.784;2022-12-18T06:01:13;-5.40;99.90
59301;DHT22;45073;52.740;6.784;2022-12-18T06:03:39;-5.40;99.90
59301;DHT22;45073;52.740;6.784;2022-12-18T06:06:13;-5.40;99.90
59301;DHT22;45073;52.740;6.784;2022-12-18T06:08:39;-5.40;99.90
59301;DHT22;45073;52.740;6.784;2022-12-18T06:11:05;-5.40;99.90
59301;DHT22;45073;52.740;6.784;2022-12-18T06:13:30;-5.40;99.90
59301;DHT22;45073;52.740;6.784;2022-12-18T06:15:56;-5.40;99.90
59301;DHT22;45073;52.740;6.784;2022-12-18T06:18:21;-5.40;99.90
59301;DHT22;45073;52.740;6.784;2022-12-18T06:20:57;-5.40;99.90
59301;DHT22;45073;52.740;6.784;2022-12-18T06:23:23;-5.40;99.90
59301;DHT22;45073;52.740;6.784;2022-12-18T06:25:49;-5.40;99.90
59301;DHT22;45073;52.740;6.784;2022-12-18T06:28:14;-5.40;99.90
59301;DHT22;45073;52.740;6.784;2022-12-18T06:30:43;-5.40;99.90
59301;DHT22;45073;52.740;6.784;2022-12-18T06:33:09;-5.40;99.90
59301;DHT22;45073;52.740;6.784;2022-12-18T06:35:34;-5.40;99.90
59301;DHT22;45073;52.740;6.784;2022-12-18T06:38:01;-5.50;99.90
59301;DHT22;45073;52.740;6.784;2022-12-18T06:40:27;-5.50;99.90
59301;DHT22;45073;52.740;6.784;2022-12-18T06:42:52;-5.50;99.90
59301;DHT22;45073;52.740;6.784;2022-12-18T06:45:18;-5.50;99.90
59301;DHT22;45073;52.740;6.784;2022-12-18T06:47:44;-5.50;99.90
59301;DHT22;45073;52.740;6.784;2022-12-18T06:50:09;-5.50;99.90
59301;DHT22;45073;52.740;6.784;2022-12-18T06:52:35;-5.60;99.90
59301;DHT22;45073;52.740;6.784;2022-12-18T06:55:02;-5.50;99.90
59301;DHT22;45073;52.740;6.784;2022-12-18T06:57:28;-5.60;99.90
59301;DHT22;45073;52.740;6.784;2022-12-18T06:59:54;-5.60;99.90
59301;DHT22;45073;52.740;6.784;2022-12-18T07:02:19;-5.50;99.90
59301;DHT22;45073;52.740;6.784;2022-12-18T07:04:45;-5.50;99.90
59301;DHT22;45073;52.740;6.784;2022-12-18T07:07:10;-5.50;99.90
59301;DHT22;45073;52.740;6.784;2022-12-18T07:09:36;-5.50;99.90
59301;DHT22;45073;52.740;6.784;2022-12-18T07:12:02;-5.50;99.90
59301;DHT22;45073;52.740;6.784;2022-12-18T07:14:27;-5.50;99.90
59301;DHT22;45073;52.740;6.784;2022-12-18T07:16:53;-5.50;99.90
59301;DHT22;45073;52.740;6.784;2022-12-18T07:19:18;-5.50;99.90
59301;DHT22;45073;52.740;6.784;2022-12-18T07:21:44;-5.50;99.90
59301;DHT22;45073;52.740;6.784;2022-12-18T07:24:10;-5.50;99.90
59301;DHT22;45073;52.740;6.784;2022-12-18T07:26:35;-5.50;99.90
59301;DHT22;45073;52.740;6.784;2022-12-18T07:29:01;-5.40;99.90
59301;DHT22;45073;52.740;6.784;2022-12-18T07:31:27;-5.40;99.90
59301;DHT22;45073;52.740;6.784;2022-12-18T07:33:52;-5.40;99.90
59301;DHT22;45073;52.740;6.784;2022-12-18T07:36:18;-5.40;99.90
59301;DHT22;45073;52.740;6.784;2022-12-18T07:38:47;-5.40;99.90
59301;DHT22;45073;52.740;6.784;2022-12-18T07:41:14;-5.40;99.90
59301;DHT22;45073;52.740;6.784;2022-12-18T07:43:40;-5.30;99.90
59301;DHT22;45073;52.740;6.784;2022-12-18T07:46:07;-5.30;99.90
59301;DHT22;45073;52.740;6.784;2022-12-18T07:48:33;-5.30;99.90
59301;DHT22;45073;52.740;6.784;2022-12-18T07:51:03;-5.30;99.90
59301;DHT22;45073;52.740;6.784;2022-12-18T07:53:29;-5.20;99.90
59301;DHT22;45073;52.740;6.784;2022-12-18T07:56:00;-5.20;99.90
59301;DHT22;45073;52.740;6.784;2022-12-18T07:58:26;-5.20;99.90
59301;DHT22;45073;52.740;6.784;2022-12-18T08:00:52;-5.20;99.90
59301;DHT22;45073;52.740;6.784;2022-12-18T08:03:18;-5.20;99.90
59301;DHT22;45073;52.740;6.784;2022-12-18T08:05:44;-5.10;99.90
59301;DHT22;45073;52.740;6.784;2022-12-18T08:08:10;-5.10;99.90
59301;DHT22;45073;52.740;6.784;2022-12-18T08:10:35;-5.00;99.90
59301;DHT22;45073;52.740;6.784;2022-12-18T08:13:01;-5.00;99.90
59301;DHT22;45073;52.740;6.784;2022-12-18T08:15:27;-5.00;99.90
59301;DHT22;45073;52.740;6.784;2022-12-18T08:17:52;-5.00;99.90
59301;DHT22;45073;52.740;6.784;2022-12-18T08:20:21;-4.90;99.90
59301;DHT22;45073;52.740;6.784;2022-12-18T08:22:46;-4.90;99.90
59301;DHT22;45073;52.740;6.784;2022-12-18T08:25:12;-4.90;99.90
59301;DHT22;45073;52.740;6.784;2022-12-18T08:27:38;-4.80;99.90
59301;DHT22;45073;52.740;6.784;2022-12-18T08:30:04;-4.80;99.90
59301;DHT22;45073;52.740;6.784;2022-12-18T08:32:30;-4.70;99.90
59301;DHT22;45073;52.740;6.784;2022-12-18T08:34:58;-4.70;99.90
59301;DHT22;45073;52.740;6.784;2022-12-18T08:37:24;-4.70;99.90
59301;DHT22;45073;52.740;6.784;2022-12-18T08:39:49;-4.60;99.90
59301;DHT22;45073;52.740;6.784;2022-12-18T08:42:15;-4.60;99.90
59301;DHT22;45073;52.740;6.784;2022-12-18T08:44:59;-4.50;99.90
59301;DHT22;45073;52.740;6.784;2022-12-18T08:47:24;-4.50;99.90
59301;DHT22;45073;52.740;6.784;2022-12-18T08:49:51;-4.40;99.90
59301;DHT22;45073;52.740;6.784;2022-12-18T08:52:17;-4.40;99.90
59301;DHT22;45073;52.740;6.784;2022-12-18T08:54:42;-4.40;99.90
59301;DHT22;45073;52.740;6.784;2022-12-18T08:57:08;-4.30;99.90
59301;DHT22;45073;52.740;6.784;2022-12-18T08:59:33;-4.30;99.90
59301;DHT22;45073;52.740;6.784;2022-12-18T09:01:59;-4.20;99.90
59301;DHT22;45073;52.740;6.784;2022-12-18T09:04:25;-4.10;99.90
59301;DHT22;45073;52.740;6.784;2022-12-18T09:06:50;-4.10;99.90
59301;DHT22;45073;52.740;6.784;2022-12-18T09:09:16;-4.00;99.90
59301;DHT22;45073;52.740;6.784;2022-12-18T09:11:41;-3.90;99.90
59301;DHT22;45073;52.740;6.784;2022-12-18T09:14:08;-3.90;99.90
59301;DHT22;45073;52.740;6.784;2022-12-18T09:16:34;-3.80;99.90
59301;DHT22;45073;52.740;6.784;2022-12-18T09:19:01;-3.70;99.90
59301;DHT22;45073;52.740;6.784;2022-12-18T09:21:33;-3.60;99.90
59301;DHT22;45073;52.740;6.784;2022-12-18T09:23:59;-3.50;99.90
59301;DHT22;45073;52.740;6.784;2022-12-18T09:26:26;-3.50;99.90
59301;DHT22;45073;52.740;6.784;2022-12-18T09:28:52;-3.40;99.90
59301;DHT22;45073;52.740;6.784;2022-12-18T09:31:20;-3.40;99.90
59301;DHT22;45073;52.740;6.784;2022-12-18T09:33:46;-3.30;99.90
59301;DHT22;45073;52.740;6.784;2022-12-18T09:36:14;-3.20;99.90
59301;DHT22;45073;52.740;6.784;2022-12-18T09:38:39;-3.10;99.90
59301;DHT22;45073;52.740;6.784;2022-12-18T09:41:33;-3.00;99.90
59301;DHT22;45073;52.740;6.784;2022-12-18T09:44:11;-2.90;99.90
59301;DHT22;45073;52.740;6.784;2022-12-18T09:46:51;-2.80;99.90
59301;DHT22;45073;52.740;6.784;2022-12-18T09:49:21;-2.80;99.90
59301;DHT22;45073;52.740;6.784;2022-12-18T09:52:00;-2.70;99.90
59301;DHT22;45073;52.740;6.784;2022-12-18T09:54:44;-2.60;99.90
59301;DHT22;45073;52.740;6.784;2022-12-18T09:57:15;-2.60;99.90
59301;DHT22;45073;52.740;6.784;2022-12-18T09:59:44;-2.50;99.90
59301;DHT22;45073;52.740;6.784;2022-12-18T10:02:18;-2.40;99.90
59301;DHT22;45073;52.740;6.784;2022-12-18T10:05:07;-2.30;99.90
59301;DHT22;45073;52.740;6.784;2022-12-18T10:10:56;-2.20;99.90
59301;DHT22;45073;52.740;6.784;2022-12-18T10:13:22;-2.10;99.90
59301;DHT22;45073;52.740;6.784;2022-12-18T10:21:39;-1.80;99.90
59301;DHT22;45073;52.740;6.784;2022-12-18T10:26:38;-1.60;99.90
59301;DHT22;45073;52.740;6.784;2022-12-18T10:29:12;-1.60;99.90
59301;DHT22;45073;52.740;6.784;2022-12-18T10:31:38;-1.50;99.90
59301;DHT22;45073;52.740;6.784;2022-12-18T10:34:07;-1.50;99.90
59301;DHT22;45073;52.740;6.784;2022-12-18T10:36:34;-1.40;99.90
59301;DHT22;45073;52.740;6.784;2022-12-18T10:39:18;-1.40;99.90
59301;DHT22;45073;52.740;6.784;2022-12-18T10:41:44;-1.40;99.90
59301;DHT22;45073;52.740;6.784;2022-12-18T10:46:45;-1.30;99.90
59301;DHT22;45073;52.740;6.784;2022-12-18T10:49:26;-1.20;99.90
59301;DHT22;45073;52.740;6.784;2022-12-18T10:52:17;-1.20;99.90
59301;DHT22;45073;52.740;6.784;2022-12-18T10:54:54;-1.10;99.90
59301;DHT22;45073;52.740;6.784;2022-12-18T10:59:57;-1.10;99.90
59301;DHT22;45073;52.740;6.784;2022-12-18T11:02:33;-1.00;99.90
59301;DHT22;45073;52.740;6.784;2022-12-18T11:04:59;-1.00;99.90
59301;DHT22;45073;52.740;6.784;2022-12-18T11:07:25;-1.00;99.90
59301;DHT22;45073;52.740;6.784;2022-12-18T11:10:01;-1.00;99.90
59301;DHT22;45073;52.740;6.784;2022-12-18T11:12:28;-0.90;99.90
59301;DHT22;45073;52.740;6.784;2022-12-18T11:14:55;-0.90;99.90
59301;DHT22;45073;52.740;6.784;2022-12-18T11:20:03;-0.80;99.90
59301;DHT22;45073;52.740;6.784;2022-12-18T11:22:34;-0.80;99.90
59301;DHT22;45073;52.740;6.784;2022-12-18T11:25:04;-0.70;99.90
59301;DHT22;45073;52.740;6.784;2022-12-18T11:27:31;-0.70;99.90
59301;DHT22;45073;52.740;6.784;2022-12-18T11:30:10;-0.70;99.90
59301;DHT22;45073;52.740;6.784;2022-12-18T11:32:48;-0.70;99.90
59301;DHT22;45073;52.740;6.784;2022-12-18T11:36:03;-0.60;99.90
59301;DHT22;45073;52.740;6.784;2022-12-18T11:40:40;-0.50;99.90
59301;DHT22;45073;52.740;6.784;2022-12-18T11:43:13;-0.50;99.90
59301;DHT22;45073;52.740;6.784;2022-12-18T11:46:23;-0.40;99.90
59301;DHT22;45073;52.740;6.784;2022-12-18T11:48:55;-0.40;99.90
59301;DHT22;45073;52.740;6.784;2022-12-18T11:51:43;-0.40;99.90
59301;DHT22;45073;52.740;6.784;2022-12-18T11:54:14;-0.30;99.90
59301;DHT22;45073;52.740;6.784;2022-12-18T11:56:55;-0.30;99.90
59301;DHT22;45073;52.740;6.784;2022-12-18T11:59:30;-0.30;99.90
59301;DHT22;45073;52.740;6.784;2022-12-18T12:02:33;-0.30;99.90
59301;DHT22;45073;52.740;6.784;2022-12-18T12:08:11;-0.20;99.90
59301;DHT22;45073;52.740;6.784;2022-12-18T12:11:19;-0.20;99.90
59301;DHT22;45073;52.740;6.784;2022-12-18T12:14:03;-0.20;99.90
59301;DHT22;45073;52.740;6.784;2022-12-18T12:19:48;-0.10;99.90
59301;DHT22;45073;52.740;6.784;2022-12-18T12:22:45;-0.10;99.90
59301;DHT22;45073;52.740;6.784;2022-12-18T12:31:19;0.00;99.90
59301;DHT22;45073;52.740;6.784;2022-12-18T12:39:28;0.00;99.90
59301;DHT22;45073;52.740;6.784;2022-12-18T12:41:56;0.00;99.90
59301;DHT22;45073;52.740;6.784;2022-12-18T12:44:45;0.10;99.90
59301;DHT22;45073;52.740;6.784;2022-12-18T12:47:17;0.10;99.90
59301;DHT22;45073;52.740;6.784;2022-12-18T12:49:45;0.10;99.90
59301;DHT22;45073;52.740;6.784;2022-12-18T12:52:35;0.10;99.90
59301;DHT22;45073;52.740;6.784;2022-12-18T12:55:03;0.20;99.90
59301;DHT22;45073;52.740;6.784;2022-12-18T12:57:40;0.20;99.90
59301;DHT22;45073;52.740;6.784;2022-12-18T13:00:25;0.30;99.90
59301;DHT22;45073;52.740;6.784;2022-12-18T13:05:28;0.30;99.90
59301;DHT22;45073;52.740;6.784;2022-12-18T13:08:03;0.30;99.90
59301;DHT22;45073;52.740;6.784;2022-12-18T13:10:34;0.40;99.90
59301;DHT22;45073;52.740;6.784;2022-12-18T13:13:13;0.40;99.90
59301;DHT22;45073;52.740;6.784;2022-12-18T13:15:48;0.40;99.90
59301;DHT22;45073;52.740;6.784;2022-12-18T13:18:22;0.40;99.90
59301;DHT22;45073;52.740;6.784;2022-12-18T13:28:23;0.50;99.90
59301;DHT22;45073;52.740;6.784;2022-12-18T13:30:58;0.50;99.90
59301;DHT22;45073;52.740;6.784;2022-12-18T13:43:45;0.50;99.90
59301;DHT22;45073;52.740;6.784;2022-12-18T13:51:41;0.50;99.90
59301;DHT22;45073;52.740;6.784;2022-12-18T13:54:36;0.50;99.90
59301;DHT22;45073;52.740;6.784;2022-12-18T13:57:03;0.50;99.90
59301;DHT22;45073;52.740;6.784;2022-12-18T13:59:40;0.50;99.90
59301;DHT22;45073;52.740;6.784;2022-12-18T14:02:13;0.50;99.90
59301;DHT22;45073;52.740;6.784;2022-12-18T14:04:39;0.40;99.90
59301;DHT22;45073;52.740;6.784;2022-12-18T14:07:07;0.40;99.90
59301;DHT22;45073;52.740;6.784;2022-12-18T14:09:53;0.40;99.90
59301;DHT22;45073;52.740;6.784;2022-12-18T14:12:22;0.40;99.90
59301;DHT22;45073;52.740;6.784;2022-12-18T14:17:49;0.30;99.90
59301;DHT22;45073;52.740;6.784;2022-12-18T14:20:15;0.30;99.90
59301;DHT22;45073;52.740;6.784;2022-12-18T14:22:46;0.30;99.90
59301;DHT22;45073;52.740;6.784;2022-12-18T14:27:43;0.30;99.90
59301;DHT22;45073;52.740;6.784;2022-12-18T14:33:12;0.30;99.90
59301;DHT22;45073;52.740;6.784;2022-12-18T14:35:43;0.20;99.90
59301;DHT22;45073;52.740;6.784;2022-12-18T14:38:21;0.20;99.90
59301;DHT22;45073;52.740;6.784;2022-12-18T14:40:55;0.20;99.90
59301;DHT22;45073;52.740;6.784;2022-12-18T14:43:21;0.20;99.90
59301;DHT22;45073;52.740;6.784;2022-12-18T14:45:47;0.20;99.90
59301;DHT22;45073;52.740;6.784;2022-12-18T14:49:02;0.20;99.90
59301;DHT22;45073;52.740;6.784;2022-12-18T14:51:20;0.20;99.90
59301;DHT22;45073;52.740;6.784;2022-12-18T14:53:53;0.10;99.90
59301;DHT22;45073;52.740;6.784;2022-12-18T14:56:30;0.10;99.90
59301;DHT22;45073;52.740;6.784;2022-12-18T14:59:02;0.10;99.90
59301;DHT22;45073;52.740;6.784;2022-12-18T15:01:37;0.10;99.90
59301;DHT22;45073;52.740;6.784;2022-12-18T15:04:05;0.10;99.90
59301;DHT22;45073;52.740;6.784;2022-12-18T15:06:46;0.10;99.90
59301;DHT22;45073;52.740;6.784;2022-12-18T15:09:22;0.10;99.90
59301;DHT22;45073;52.740;6.784;2022-12-18T15:11:48;0.10;99.90
59301;DHT22;45073;52.740;6.784;2022-12-18T15:14:40;0.10;99.90
59301;DHT22;45073;52.740;6.784;2022-12-18T15:17:22;0.10;99.90
59301;DHT22;45073;52.740;6.784;2022-12-18T15:19:51;0.10;99.90
59301;DHT22;45073;52.740;6.784;2022-12-18T15:22:35;0.10;99.90
59301;DHT22;45073;52.740;6.784;2022-12-18T15:25:02;0.10;99.90
59301;DHT22;45073;52.740;6.784;2022-12-18T15:27:33;0.00;99.90
59301;DHT22;45073;52.740;6.784;2022-12-18T15:32:39;0.00;99.90
59301;DHT22;45073;52.740;6.784;2022-12-18T15:37:37;0.00;99.90
59301;DHT22;45073;52.740;6.784;2022-12-18T15:40:03;0.00;99.90
59301;DHT22;45073;52.740;6.784;2022-12-18T15:42:29;0.00;99.90
59301;DHT22;45073;52.740;6.784;2022-12-18T15:45:14;0.00;99.90
59301;DHT22;45073;52.740;6.784;2022-12-18T15:47:40;0.00;99.90
59301;DHT22;45073;52.740;6.784;2022-12-18T15:50:07;0.00;99.90
59301;DHT22;45073;52.740;6.784;2022-12-18T15:52:40;0.00;99.90
59301;DHT22;45073;52.740;6.784;2022-12-18T15:55:17;0.00;99.90
59301;DHT22;45073;52.740;6.784;2022-12-18T15:58:01;0.00;99.90
59301;DHT22;45073;52.740;6.784;2022-12-18T16:00:27;0.00;99.90
59301;DHT22;45073;52.740;6.784;2022-12-18T16:02:53;0.00;99.90
59301;DHT22;45073;52.740;6.784;2022-12-18T16:05:20;0.00;99.90
59301;DHT22;45073;52.740;6.784;2022-12-18T16:07:46;0.00;99.90
59301;DHT22;45073;52.740;6.784;2022-12-18T16:10:11;0.00;99.90
59301;DHT22;45073;52.740;6.784;2022-12-18T16:12:37;0.00;99.90
59301;DHT22;45073;52.740;6.784;2022-12-18T16:15:04;0.00;99.90
59301;DHT22;45073;52.740;6.784;2022-12-18T16:17:30;0.00;99.90
59301;DHT22;45073;52.740;6.784;2022-12-18T16:19:56;0.00;99.90
59301;DHT22;45073;52.740;6.784;2022-12-18T16:22:23;0.00;99.90
59301;DHT22;45073;52.740;6.784;2022-12-18T16:24:51;0.00;99.90
59301;DHT22;45073;52.740;6.784;2022-12-18T16:27:17;0.00;99.90
59301;DHT22;45073;52.740;6.784;2022-12-18T16:29:43;0.00;99.90
59301;DHT22;45073;52.740;6.784;2022-12-18T16:32:15;0.00;99.90
59301;DHT22;45073;52.740;6.784;2022-12-18T16:34:42;0.00;99.90
59301;DHT22;45073;52.740;6.784;2022-12-18T16:37:09;0.00;99.90
59301;DHT22;45073;52.740;6.784;2022-12-18T16:39:35;0.00;99.90
59301;DHT22;45073;52.740;6.784;2022-12-18T16:42:14;0.00;99.90
59301;DHT22;45073;52.740;6.784;2022-12-18T16:44:42;0.00;99.90
59301;DHT22;45073;52.740;6.784;2022-12-18T16:47:08;0.10;99.90
59301;DHT22;45073;52.740;6.784;2022-12-18T16:49:34;0.10;99.90
59301;DHT22;45073;52.740;6.784;2022-12-18T16:52:01;0.10;99.90
59301;DHT22;45073;52.740;6.784;2022-12-18T16:54:26;0.10;99.90
59301;DHT22;45073;52.740;6.784;2022-12-18T16:56:54;0.10;99.90
59301;DHT22;45073;52.740;6.784;2022-12-18T16:59:20;0.10;99.90
59301;DHT22;45073;52.740;6.784;2022-12-18T17:01:46;0.10;99.90
59301;DHT22;45073;52.740;6.784;2022-12-18T17:04:12;0.10;99.90
59301;DHT22;45073;52.740;6.784;2022-12-18T17:06:40;0.10;99.90
59301;DHT22;45073;52.740;6.784;2022-12-18T17:09:08;0.10;99.90
59301;DHT22;45073;52.740;6.784;2022-12-18T17:11:34;0.10;99.90
59301;DHT22;45073;52.740;6.784;2022-12-18T17:14:06;0.10;99.90
59301;DHT22;45073;52.740;6.784;2022-12-18T17:16:32;0.10;99.90
59301;DHT22;45073;52.740;6.784;2022-12-18T17:18:58;0.10;99.90
59301;DHT22;45073;52.740;6.784;2022-12-18T17:21:23;0.10;99.90
59301;DHT22;45073;52.740;6.784;2022-12-18T17:23:49;0.10;99.90
59301;DHT22;45073;52.740;6.784;2022-12-18T17:26:15;0.10;99.90
59301;DHT22;45073;52.740;6.784;2022-12-18T17:28:40;0.10;99.90